Ostrander, Minnesota
Current Conditions -  °F | °C
As of 11:55 PM on Sunday 19 Oct 2014 (Local Time) from KFKA Reporting Station
Clear Clear  
Wind Chill: 11°   Ceiling: Unl
Heat Index: 11°   Visibility: 10mi
Dew Point:   Wind: 12mph
Humidity: 71%   Direction: 310°NW
Pressure: 29.84"   Gusts: NA
Location:  43.61°N, 92.43°W
Report Text: KFKA 200455Z AUTO 31010KT 10SM CLR 11/06 A2984 RMK AO2 T01110060
Loading
Personal Weather Stations






























Interactive Weather Map
Tropical Storm Tracking
New forecast layout! Learn more

10-Day Weather Forecast

Advertisements
Track Severe Weather on mobile